sensor_id;sensor_type;location;lat;lon;timestamp;P1;durP1;ratioP1;P2;durP2;ratioP2
7647;SDS011;3866;48.020;11.720;2023-11-22T00:01:50;13.83;;;9.87;;
7647;SDS011;3866;48.020;11.720;2023-11-22T00:04:17;11.57;;;9.07;;
7647;SDS011;3866;48.020;11.720;2023-11-22T00:06:46;13.20;;;10.13;;
7647;SDS011;3866;48.020;11.720;2023-11-22T00:09:13;11.77;;;9.63;;
7647;SDS011;3866;48.020;11.720;2023-11-22T00:11:40;13.23;;;9.90;;
7647;SDS011;3866;48.020;11.720;2023-11-22T00:14:07;15.33;;;10.37;;
7647;SDS011;3866;48.020;11.720;2023-11-22T00:16:34;12.90;;;9.70;;
7647;SDS011;3866;48.020;11.720;2023-11-22T00:19:02;14.10;;;9.73;;
7647;SDS011;3866;48.020;11.720;2023-11-22T00:21:30;15.37;;;10.13;;
7647;SDS011;3866;48.020;11.720;2023-11-22T00:23:58;12.63;;;9.23;;
7647;SDS011;3866;48.020;11.720;2023-11-22T00:26:25;12.30;;;10.03;;
7647;SDS011;3866;48.020;11.720;2023-11-22T00:28:54;13.13;;;9.80;;
7647;SDS011;3866;48.020;11.720;2023-11-22T00:31:22;13.93;;;9.47;;
7647;SDS011;3866;48.020;11.720;2023-11-22T00:33:50;15.93;;;10.77;;
7647;SDS011;3866;48.020;11.720;2023-11-22T00:36:17;13.00;;;10.47;;
7647;SDS011;3866;48.020;11.720;2023-11-22T00:38:44;16.40;;;10.60;;
7647;SDS011;3866;48.020;11.720;2023-11-22T00:41:13;12.70;;;9.70;;
7647;SDS011;3866;48.020;11.720;2023-11-22T00:43:40;16.93;;;11.33;;
7647;SDS011;3866;48.020;11.720;2023-11-22T00:46:07;18.10;;;10.93;;
7647;SDS011;3866;48.020;11.720;2023-11-22T00:48:35;16.33;;;11.27;;
7647;SDS011;3866;48.020;11.720;2023-11-22T00:51:02;16.83;;;10.63;;
7647;SDS011;3866;48.020;11.720;2023-11-22T00:53:33;17.53;;;11.47;;
7647;SDS011;3866;48.020;11.720;2023-11-22T00:56:01;15.57;;;11.07;;
7647;SDS011;3866;48.020;11.720;2023-11-22T00:58:30;16.67;;;10.60;;
7647;SDS011;3866;48.020;11.720;2023-11-22T01:00:57;16.63;;;11.40;;
7647;SDS011;3866;48.020;11.720;2023-11-22T01:03:24;13.77;;;11.07;;
7647;SDS011;3866;48.020;11.720;2023-11-22T01:05:51;19.23;;;12.80;;
7647;SDS011;3866;48.020;11.720;2023-11-22T01:08:18;14.23;;;11.27;;
7647;SDS011;3866;48.020;11.720;2023-11-22T01:10:45;21.13;;;12.40;;
7647;SDS011;3866;48.020;11.720;2023-11-22T01:13:12;17.80;;;12.00;;
7647;SDS011;3866;48.020;11.720;2023-11-22T01:15:41;17.43;;;12.90;;
7647;SDS011;3866;48.020;11.720;2023-11-22T01:18:09;14.50;;;10.83;;
7647;SDS011;3866;48.020;11.720;2023-11-22T01:20:36;18.17;;;11.27;;
7647;SDS011;3866;48.020;11.720;2023-11-22T01:23:03;16.93;;;11.70;;
7647;SDS011;3866;48.020;11.720;2023-11-22T01:25:30;15.37;;;11.53;;
7647;SDS011;3866;48.020;11.720;2023-11-22T01:27:58;15.97;;;10.83;;
7647;SDS011;3866;48.020;11.720;2023-11-22T01:30:25;17.67;;;11.37;;
7647;SDS011;3866;48.020;11.720;2023-11-22T01:32:55;15.83;;;10.93;;
7647;SDS011;3866;48.020;11.720;2023-11-22T01:35:21;14.30;;;11.43;;
7647;SDS011;3866;48.020;11.720;2023-11-22T01:37:48;14.67;;;10.70;;
7647;SDS011;3866;48.020;11.720;2023-11-22T01:40:15;14.03;;;10.53;;
7647;SDS011;3866;48.020;11.720;2023-11-22T01:42:44;17.23;;;10.97;;
7647;SDS011;3866;48.020;11.720;2023-11-22T01:45:12;15.67;;;10.30;;
7647;SDS011;3866;48.020;11.720;2023-11-22T01:47:39;16.20;;;10.53;;
7647;SDS011;3866;48.020;11.720;2023-11-22T01:50:07;15.80;;;10.60;;
7647;SDS011;3866;48.020;11.720;2023-11-22T01:52:35;17.80;;;10.73;;
7647;SDS011;3866;48.020;11.720;2023-11-22T01:55:04;14.30;;;10.33;;
7647;SDS011;3866;48.020;11.720;2023-11-22T01:57:31;16.83;;;10.47;;
7647;SDS011;3866;48.020;11.720;2023-11-22T01:59:59;16.00;;;10.90;;
7647;SDS011;3866;48.020;11.720;2023-11-22T02:02:28;16.53;;;10.30;;
7647;SDS011;3866;48.020;11.720;2023-11-22T02:04:56;15.10;;;10.27;;
7647;SDS011;3866;48.020;11.720;2023-11-22T02:07:24;15.33;;;11.03;;
7647;SDS011;3866;48.020;11.720;2023-11-22T02:09:53;15.90;;;10.83;;
7647;SDS011;3866;48.020;11.720;2023-11-22T02:12:21;15.53;;;10.20;;
7647;SDS011;3866;48.020;11.720;2023-11-22T02:14:48;16.43;;;10.97;;
7647;SDS011;3866;48.020;11.720;2023-11-22T02:17:15;16.47;;;10.37;;
7647;SDS011;3866;48.020;11.720;2023-11-22T02:19:43;17.93;;;11.30;;
7647;SDS011;3866;48.020;11.720;2023-11-22T02:22:09;16.43;;;9.73;;
7647;SDS011;3866;48.020;11.720;2023-11-22T02:24:38;11.93;;;9.03;;
7647;SDS011;3866;48.020;11.720;2023-11-22T02:27:05;18.90;;;9.77;;
7647;SDS011;3866;48.020;11.720;2023-11-22T02:29:32;13.53;;;9.80;;
7647;SDS011;3866;48.020;11.720;2023-11-22T02:31:59;12.20;;;8.67;;
7647;SDS011;3866;48.020;11.720;2023-11-22T02:34:26;13.03;;;8.87;;
7647;SDS011;3866;48.020;11.720;2023-11-22T02:36:53;12.23;;;8.33;;
7647;SDS011;3866;48.020;11.720;2023-11-22T02:39:19;13.07;;;7.83;;
7647;SDS011;3866;48.020;11.720;2023-11-22T02:41:48;10.80;;;7.70;;
7647;SDS011;3866;48.020;11.720;2023-11-22T02:44:15;10.67;;;6.97;;
7647;SDS011;3866;48.020;11.720;2023-11-22T02:46:42;8.07;;;6.03;;
7647;SDS011;3866;48.020;11.720;2023-11-22T02:49:09;8.03;;;5.77;;
7647;SDS011;3866;48.020;11.720;2023-11-22T02:51:36;9.97;;;5.97;;
7647;SDS011;3866;48.020;11.720;2023-11-22T02:54:03;7.50;;;5.80;;
7647;SDS011;3866;48.020;11.720;2023-11-22T02:56:30;6.70;;;5.77;;
7647;SDS011;3866;48.020;11.720;2023-11-22T02:58:59;7.23;;;5.37;;
7647;SDS011;3866;48.020;11.720;2023-11-22T03:01:26;6.87;;;5.43;;
7647;SDS011;3866;48.020;11.720;2023-11-22T03:03:52;6.83;;;5.87;;
7647;SDS011;3866;48.020;11.720;2023-11-22T03:06:19;6.43;;;5.30;;
7647;SDS011;3866;48.020;11.720;2023-11-22T03:08:46;6.77;;;5.27;;
7647;SDS011;3866;48.020;11.720;2023-11-22T03:11:14;6.93;;;5.37;;
7647;SDS011;3866;48.020;11.720;2023-11-22T03:13:41;6.60;;;5.13;;
7647;SDS011;3866;48.020;11.720;2023-11-22T03:16:10;6.13;;;4.90;;
7647;SDS011;3866;48.020;11.720;2023-11-22T03:18:37;5.97;;;5.03;;
7647;SDS011;3866;48.020;11.720;2023-11-22T03:21:05;5.17;;;4.60;;
7647;SDS011;3866;48.020;11.720;2023-11-22T03:23:31;7.80;;;5.50;;
7647;SDS011;3866;48.020;11.720;2023-11-22T03:25:58;5.90;;;5.00;;
7647;SDS011;3866;48.020;11.720;2023-11-22T03:28:26;7.93;;;5.17;;
7647;SDS011;3866;48.020;11.720;2023-11-22T03:30:55;5.50;;;4.87;;
7647;SDS011;3866;48.020;11.720;2023-11-22T03:33:23;6.53;;;5.77;;
7647;SDS011;3866;48.020;11.720;2023-11-22T03:35:51;5.53;;;4.80;;
7647;SDS011;3866;48.020;11.720;2023-11-22T03:38:18;7.30;;;5.07;;
7647;SDS011;3866;48.020;11.720;2023-11-22T03:40:46;7.03;;;4.90;;
7647;SDS011;3866;48.020;11.720;2023-11-22T03:43:13;5.67;;;4.43;;
7647;SDS011;3866;48.020;11.720;2023-11-22T03:45:39;6.93;;;5.40;;
7647;SDS011;3866;48.020;11.720;2023-11-22T03:48:06;5.73;;;4.77;;
7647;SDS011;3866;48.020;11.720;2023-11-22T03:50:35;5.80;;;4.60;;
7647;SDS011;3866;48.020;11.720;2023-11-22T03:53:01;7.13;;;5.17;;
7647;SDS011;3866;48.020;11.720;2023-11-22T03:55:28;6.87;;;5.33;;
7647;SDS011;3866;48.020;11.720;2023-11-22T03:57:55;7.87;;;5.30;;
7647;SDS011;3866;48.020;11.720;2023-11-22T04:00:22;7.07;;;5.63;;
7647;SDS011;3866;48.020;11.720;2023-11-22T04:02:49;7.17;;;6.07;;
7647;SDS011;3866;48.020;11.720;2023-11-22T04:05:16;7.40;;;5.73;;
7647;SDS011;3866;48.020;11.720;2023-11-22T04:07:46;6.87;;;5.27;;
7647;SDS011;3866;48.020;11.720;2023-11-22T04:10:13;7.53;;;5.80;;
7647;SDS011;3866;48.020;11.720;2023-11-22T04:12:40;9.00;;;5.30;;
7647;SDS011;3866;48.020;11.720;2023-11-22T04:15:07;7.07;;;5.57;;
7647;SDS011;3866;48.020;11.720;2023-11-22T04:17:35;6.43;;;5.13;;
7647;SDS011;3866;48.020;11.720;2023-11-22T04:20:03;6.87;;;5.13;;
7647;SDS011;3866;48.020;11.720;2023-11-22T04:22:34;6.10;;;5.40;;
7647;SDS011;3866;48.020;11.720;2023-11-22T04:25:02;7.63;;;5.40;;
7647;SDS011;3866;48.020;11.720;2023-11-22T04:27:30;7.03;;;5.13;;
7647;SDS011;3866;48.020;11.720;2023-11-22T04:29:57;6.40;;;5.27;;
7647;SDS011;3866;48.020;11.720;2023-11-22T04:32:24;5.97;;;5.00;;
7647;SDS011;3866;48.020;11.720;2023-11-22T04:34:51;7.00;;;4.60;;
7647;SDS011;3866;48.020;11.720;2023-11-22T04:37:17;7.50;;;5.40;;
7647;SDS011;3866;48.020;11.720;2023-11-22T04:39:44;6.30;;;5.20;;
7647;SDS011;3866;48.020;11.720;2023-11-22T04:42:16;5.80;;;4.40;;
7647;SDS011;3866;48.020;11.720;2023-11-22T04:44:42;5.70;;;4.73;;
7647;SDS011;3866;48.020;11.720;2023-11-22T04:47:09;5.93;;;4.23;;
7647;SDS011;3866;48.020;11.720;2023-11-22T04:49:36;7.00;;;5.17;;
7647;SDS011;3866;48.020;11.720;2023-11-22T04:52:03;7.50;;;5.00;;
7647;SDS011;3866;48.020;11.720;2023-11-22T04:54:30;6.57;;;5.03;;
7647;SDS011;3866;48.020;11.720;2023-11-22T04:56:58;5.50;;;4.77;;
7647;SDS011;3866;48.020;11.720;2023-11-22T04:59:26;6.10;;;4.80;;
7647;SDS011;3866;48.020;11.720;2023-11-22T05:01:53;6.30;;;5.37;;
7647;SDS011;3866;48.020;11.720;2023-11-22T05:04:21;6.47;;;4.43;;
7647;SDS011;3866;48.020;11.720;2023-11-22T05:06:48;5.40;;;4.30;;
7647;SDS011;3866;48.020;11.720;2023-11-22T05:09:14;6.10;;;4.37;;
7647;SDS011;3866;48.020;11.720;2023-11-22T05:11:43;6.53;;;4.80;;
7647;SDS011;3866;48.020;11.720;2023-11-22T05:14:10;6.40;;;4.80;;
7647;SDS011;3866;48.020;11.720;2023-11-22T05:16:39;6.40;;;4.80;;
7647;SDS011;3866;48.020;11.720;2023-11-22T05:19:06;7.07;;;5.33;;
7647;SDS011;3866;48.020;11.720;2023-11-22T05:21:33;6.50;;;5.30;;
7647;SDS011;3866;48.020;11.720;2023-11-22T05:24:00;7.43;;;4.93;;
7647;SDS011;3866;48.020;11.720;2023-11-22T05:26:27;6.43;;;5.03;;
7647;SDS011;3866;48.020;11.720;2023-11-22T05:28:54;15.27;;;10.27;;
7647;SDS011;3866;48.020;11.720;2023-11-22T05:31:24;8.87;;;6.17;;
7647;SDS011;3866;48.020;11.720;2023-11-22T05:33:52;8.73;;;6.10;;
7647;SDS011;3866;48.020;11.720;2023-11-22T05:36:19;7.20;;;5.57;;
7647;SDS011;3866;48.020;11.720;2023-11-22T05:38:46;7.60;;;4.97;;
7647;SDS011;3866;48.020;11.720;2023-11-22T05:41:13;5.87;;;4.67;;
7647;SDS011;3866;48.020;11.720;2023-11-22T05:43:40;8.50;;;5.47;;
7647;SDS011;3866;48.020;11.720;2023-11-22T05:46:08;8.93;;;5.47;;
7647;SDS011;3866;48.020;11.720;2023-11-22T05:48:35;6.33;;;5.10;;
7647;SDS011;3866;48.020;11.720;2023-11-22T05:51:03;7.70;;;5.23;;
7647;SDS011;3866;48.020;11.720;2023-11-22T05:53:30;8.57;;;5.60;;
7647;SDS011;3866;48.020;11.720;2023-11-22T05:55:57;6.63;;;5.10;;
7647;SDS011;3866;48.020;11.720;2023-11-22T05:58:24;10.03;;;5.53;;
7647;SDS011;3866;48.020;11.720;2023-11-22T06:00:51;8.37;;;5.97;;
7647;SDS011;3866;48.020;11.720;2023-11-22T06:03:18;8.03;;;6.13;;
7647;SDS011;3866;48.020;11.720;2023-11-22T06:05:45;8.50;;;5.57;;
7647;SDS011;3866;48.020;11.720;2023-11-22T06:08:13;7.50;;;5.20;;
7647;SDS011;3866;48.020;11.720;2023-11-22T06:10:40;5.50;;;4.50;;
7647;SDS011;3866;48.020;11.720;2023-11-22T06:13:07;6.07;;;4.73;;
7647;SDS011;3866;48.020;11.720;2023-11-22T06:15:38;5.97;;;4.77;;
7647;SDS011;3866;48.020;11.720;2023-11-22T06:18:05;6.53;;;4.33;;
7647;SDS011;3866;48.020;11.720;2023-11-22T06:20:32;5.53;;;4.33;;
7647;SDS011;3866;48.020;11.720;2023-11-22T06:22:59;6.23;;;4.37;;
7647;SDS011;3866;48.020;11.720;2023-11-22T06:25:27;5.50;;;4.47;;
7647;SDS011;3866;48.020;11.720;2023-11-22T06:27:54;5.83;;;4.60;;
7647;SDS011;3866;48.020;11.720;2023-11-22T06:30:21;5.80;;;4.23;;
7647;SDS011;3866;48.020;11.720;2023-11-22T06:32:49;5.87;;;4.77;;
7647;SDS011;3866;48.020;11.720;2023-11-22T06:35:16;4.83;;;4.00;;
7647;SDS011;3866;48.020;11.720;2023-11-22T06:37:43;6.13;;;4.67;;
7647;SDS011;3866;48.020;11.720;2023-11-22T06:40:11;6.43;;;5.17;;
7647;SDS011;3866;48.020;11.720;2023-11-22T06:42:40;5.73;;;4.80;;
7647;SDS011;3866;48.020;11.720;2023-11-22T06:45:07;5.70;;;4.07;;
7647;SDS011;3866;48.020;11.720;2023-11-22T06:47:37;4.53;;;4.00;;
7647;SDS011;3866;48.020;11.720;2023-11-22T06:50:04;5.70;;;4.57;;
7647;SDS011;3866;48.020;11.720;2023-11-22T06:52:34;6.20;;;4.97;;
7647;SDS011;3866;48.020;11.720;2023-11-22T06:55:01;4.90;;;4.03;;
7647;SDS011;3866;48.020;11.720;2023-11-22T06:57:28;4.77;;;4.27;;
7647;SDS011;3866;48.020;11.720;2023-11-22T06:59:57;4.50;;;3.73;;
7647;SDS011;3866;48.020;11.720;2023-11-22T07:02:24;4.33;;;3.93;;
7647;SDS011;3866;48.020;11.720;2023-11-22T07:04:50;5.93;;;4.10;;
7647;SDS011;3866;48.020;11.720;2023-11-22T07:07:18;6.47;;;4.73;;
7647;SDS011;3866;48.020;11.720;2023-11-22T07:09:45;5.90;;;4.70;;
7647;SDS011;3866;48.020;11.720;2023-11-22T07:12:12;5.67;;;4.70;;
7647;SDS011;3866;48.020;11.720;2023-11-22T07:14:38;6.30;;;5.17;;
7647;SDS011;3866;48.020;11.720;2023-11-22T07:17:09;5.53;;;4.93;;
7647;SDS011;3866;48.020;11.720;2023-11-22T07:19:36;7.27;;;5.50;;
7647;SDS011;3866;48.020;11.720;2023-11-22T07:22:04;8.07;;;5.53;;
7647;SDS011;3866;48.020;11.720;2023-11-22T07:24:41;7.67;;;5.53;;
7647;SDS011;3866;48.020;11.720;2023-11-22T07:27:09;7.50;;;5.67;;
7647;SDS011;3866;48.020;11.720;2023-11-22T07:29:37;6.33;;;5.33;;
7647;SDS011;3866;48.020;11.720;2023-11-22T07:32:06;6.47;;;5.40;;
7647;SDS011;3866;48.020;11.720;2023-11-22T07:34:35;6.40;;;4.93;;
7647;SDS011;3866;48.020;11.720;2023-11-22T07:37:03;6.93;;;5.50;;
7647;SDS011;3866;48.020;11.720;2023-11-22T07:39:31;6.67;;;5.37;;
7647;SDS011;3866;48.020;11.720;2023-11-22T07:42:00;7.57;;;5.87;;
7647;SDS011;3866;48.020;11.720;2023-11-22T07:44:27;7.33;;;6.10;;
7647;SDS011;3866;48.020;11.720;2023-11-22T07:46:57;5.90;;;5.17;;
7647;SDS011;3866;48.020;11.720;2023-11-22T07:49:25;7.03;;;5.43;;
7647;SDS011;3866;48.020;11.720;2023-11-22T07:51:53;6.50;;;5.40;;
7647;SDS011;3866;48.020;11.720;2023-11-22T07:54:21;8.30;;;5.97;;
7647;SDS011;3866;48.020;11.720;2023-11-22T07:56:49;6.80;;;6.03;;
7647;SDS011;3866;48.020;11.720;2023-11-22T07:59:17;6.63;;;5.97;;
7647;SDS011;3866;48.020;11.720;2023-11-22T08:01:44;6.17;;;5.57;;
7647;SDS011;3866;48.020;11.720;2023-11-22T08:04:13;6.03;;;5.43;;
7647;SDS011;3866;48.020;11.720;2023-11-22T08:06:41;7.63;;;5.70;;
7647;SDS011;3866;48.020;11.720;2023-11-22T08:09:10;7.43;;;5.30;;
7647;SDS011;3866;48.020;11.720;2023-11-22T08:11:37;6.33;;;5.63;;
7647;SDS011;3866;48.020;11.720;2023-11-22T08:14:04;7.50;;;6.03;;
7647;SDS011;3866;48.020;11.720;2023-11-22T08:16:32;8.60;;;5.60;;
7647;SDS011;3866;48.020;11.720;2023-11-22T08:19:03;8.53;;;6.13;;
7647;SDS011;3866;48.020;11.720;2023-11-22T08:21:30;5.93;;;5.13;;
7647;SDS011;3866;48.020;11.720;2023-11-22T08:23:57;7.50;;;5.37;;
7647;SDS011;3866;48.020;11.720;2023-11-22T08:26:26;9.87;;;5.87;;
7647;SDS011;3866;48.020;11.720;2023-11-22T08:28:53;7.13;;;5.87;;
7647;SDS011;3866;48.020;11.720;2023-11-22T08:31:20;7.37;;;5.83;;
7647;SDS011;3866;48.020;11.720;2023-11-22T08:33:47;6.67;;;5.53;;
7647;SDS011;3866;48.020;11.720;2023-11-22T08:36:14;6.27;;;5.40;;
7647;SDS011;3866;48.020;11.720;2023-11-22T08:38:41;7.80;;;6.30;;
7647;SDS011;3866;48.020;11.720;2023-11-22T08:41:09;7.43;;;5.90;;
7647;SDS011;3866;48.020;11.720;2023-11-22T08:43:40;6.40;;;5.67;;
7647;SDS011;3866;48.020;11.720;2023-11-22T08:46:07;5.90;;;5.30;;
7647;SDS011;3866;48.020;11.720;2023-11-22T08:48:34;6.40;;;5.57;;
7647;SDS011;3866;48.020;11.720;2023-11-22T08:51:02;8.53;;;5.73;;
7647;SDS011;3866;48.020;11.720;2023-11-22T08:53:30;6.03;;;5.33;;
7647;SDS011;3866;48.020;11.720;2023-11-22T08:55:57;6.00;;;5.17;;
7647;SDS011;3866;48.020;11.720;2023-11-22T08:58:24;5.27;;;4.73;;
7647;SDS011;3866;48.020;11.720;2023-11-22T09:00:53;6.33;;;5.10;;
7647;SDS011;3866;48.020;11.720;2023-11-22T09:03:22;6.37;;;4.97;;
7647;SDS011;3866;48.020;11.720;2023-11-22T09:05:49;5.63;;;4.67;;
7647;SDS011;3866;48.020;11.720;2023-11-22T09:08:18;5.80;;;5.20;;
7647;SDS011;3866;48.020;11.720;2023-11-22T09:10:46;5.17;;;4.60;;
7647;SDS011;3866;48.020;11.720;2023-11-22T09:13:13;7.43;;;4.70;;
7647;SDS011;3866;48.020;11.720;2023-11-22T09:15:41;5.77;;;4.60;;
7647;SDS011;3866;48.020;11.720;2023-11-22T09:18:10;6.57;;;5.17;;
7647;SDS011;3866;48.020;11.720;2023-11-22T09:20:38;7.27;;;5.57;;
7647;SDS011;3866;48.020;11.720;2023-11-22T09:23:09;8.00;;;6.47;;
7647;SDS011;3866;48.020;11.720;2023-11-22T09:25:36;7.13;;;6.43;;
7647;SDS011;3866;48.020;11.720;2023-11-22T09:28:04;7.13;;;6.40;;
7647;SDS011;3866;48.020;11.720;2023-11-22T09:30:32;9.10;;;6.43;;
7647;SDS011;3866;48.020;11.720;2023-11-22T09:33:00;9.40;;;6.93;;
7647;SDS011;3866;48.020;11.720;2023-11-22T09:35:30;7.60;;;6.80;;
7647;SDS011;3866;48.020;11.720;2023-11-22T09:37:58;7.50;;;6.37;;
7647;SDS011;3866;48.020;11.720;2023-11-22T09:40:25;7.77;;;6.37;;
7647;SDS011;3866;48.020;11.720;2023-11-22T09:42:54;9.23;;;6.27;;
7647;SDS011;3866;48.020;11.720;2023-11-22T09:45:22;7.67;;;5.93;;
7647;SDS011;3866;48.020;11.720;2023-11-22T09:47:51;6.53;;;5.30;;
7647;SDS011;3866;48.020;11.720;2023-11-22T09:50:19;6.63;;;6.03;;
7647;SDS011;3866;48.020;11.720;2023-11-22T09:52:51;8.10;;;6.33;;
7647;SDS011;3866;48.020;11.720;2023-11-22T09:55:19;7.10;;;6.40;;
7647;SDS011;3866;48.020;11.720;2023-11-22T09:57:48;6.13;;;5.50;;
7647;SDS011;3866;48.020;11.720;2023-11-22T10:00:16;6.70;;;5.67;;
7647;SDS011;3866;48.020;11.720;2023-11-22T10:02:46;6.47;;;5.47;;
7647;SDS011;3866;48.020;11.720;2023-11-22T10:05:13;6.73;;;5.20;;
7647;SDS011;3866;48.020;11.720;2023-11-22T10:07:40;5.70;;;5.20;;
7647;SDS011;3866;48.020;11.720;2023-11-22T10:10:09;6.50;;;5.37;;
7647;SDS011;3866;48.020;11.720;2023-11-22T10:12:40;6.30;;;5.70;;
7647;SDS011;3866;48.020;11.720;2023-11-22T10:15:10;7.43;;;5.80;;
7647;SDS011;3866;48.020;11.720;2023-11-22T10:17:38;6.47;;;5.87;;
7647;SDS011;3866;48.020;11.720;2023-11-22T10:20:06;8.53;;;6.97;;
7647;SDS011;3866;48.020;11.720;2023-11-22T10:22:43;8.80;;;6.73;;
7647;SDS011;3866;48.020;11.720;2023-11-22T10:25:14;8.93;;;7.40;;
7647;SDS011;3866;48.020;11.720;2023-11-22T10:27:44;10.90;;;8.40;;
7647;SDS011;3866;48.020;11.720;2023-11-22T10:30:16;9.07;;;7.03;;
7647;SDS011;3866;48.020;11.720;2023-11-22T10:32:44;9.10;;;7.20;;
7647;SDS011;3866;48.020;11.720;2023-11-22T10:35:12;7.43;;;6.47;;
7647;SDS011;3866;48.020;11.720;2023-11-22T10:37:41;6.47;;;5.77;;
7647;SDS011;3866;48.020;11.720;2023-11-22T10:40:10;7.23;;;6.30;;
7647;SDS011;3866;48.020;11.720;2023-11-22T10:42:41;6.73;;;6.03;;
7647;SDS011;3866;48.020;11.720;2023-11-22T10:45:08;7.07;;;6.17;;
7647;SDS011;3866;48.020;11.720;2023-11-22T10:47:36;8.20;;;7.03;;
7647;SDS011;3866;48.020;11.720;2023-11-22T10:50:10;7.77;;;6.83;;
7647;SDS011;3866;48.020;11.720;2023-11-22T10:52:41;10.00;;;6.70;;
7647;SDS011;3866;48.020;11.720;2023-11-22T10:55:08;6.83;;;5.90;;
7647;SDS011;3866;48.020;11.720;2023-11-22T10:57:44;7.77;;;6.13;;
7647;SDS011;3866;48.020;11.720;2023-11-22T11:00:13;8.70;;;5.90;;
7647;SDS011;3866;48.020;11.720;2023-11-22T11:02:44;6.17;;;5.57;;
7647;SDS011;3866;48.020;11.720;2023-11-22T11:05:15;7.20;;;4.30;;
7647;SDS011;3866;48.020;11.720;2023-11-22T11:07:48;5.33;;;4.83;;
7647;SDS011;3866;48.020;11.720;2023-11-22T11:10:20;5.80;;;5.20;;
7647;SDS011;3866;48.020;11.720;2023-11-22T11:12:49;5.80;;;5.20;;
7647;SDS011;3866;48.020;11.720;2023-11-22T11:15:18;5.70;;;4.57;;
7647;SDS011;3866;48.020;11.720;2023-11-22T11:17:46;5.77;;;5.20;;
7647;SDS011;3866;48.020;11.720;2023-11-22T11:20:15;7.83;;;5.50;;
7647;SDS011;3866;48.020;11.720;2023-11-22T11:22:46;10.90;;;7.87;;
7647;SDS011;3866;48.020;11.720;2023-11-22T11:25:16;8.53;;;6.87;;
7647;SDS011;3866;48.020;11.720;2023-11-22T11:27:44;8.77;;;6.20;;
7647;SDS011;3866;48.020;11.720;2023-11-22T11:33:26;8.57;;;7.27;;
7647;SDS011;3866;48.020;11.720;2023-11-22T11:35:56;7.53;;;6.73;;
7647;SDS011;3866;48.020;11.720;2023-11-22T11:38:26;7.33;;;6.27;;
7647;SDS011;3866;48.020;11.720;2023-11-22T11:40:58;6.93;;;6.13;;
7647;SDS011;3866;48.020;11.720;2023-11-22T11:43:39;9.70;;;7.33;;
7647;SDS011;3866;48.020;11.720;2023-11-22T11:46:08;5.90;;;5.27;;
7647;SDS011;3866;48.020;11.720;2023-11-22T11:48:36;5.30;;;4.80;;
7647;SDS011;3866;48.020;11.720;2023-11-22T11:51:03;5.07;;;4.67;;
7647;SDS011;3866;48.020;11.720;2023-11-22T11:53:32;5.87;;;5.10;;
7647;SDS011;3866;48.020;11.720;2023-11-22T11:55:59;6.87;;;5.70;;
7647;SDS011;3866;48.020;11.720;2023-11-22T11:58:27;8.97;;;6.23;;
7647;SDS011;3866;48.020;11.720;2023-11-22T12:00:54;8.77;;;6.07;;
7647;SDS011;3866;48.020;11.720;2023-11-22T12:03:23;8.17;;;5.63;;
7647;SDS011;3866;48.020;11.720;2023-11-22T12:05:50;6.20;;;5.23;;
7647;SDS011;3866;48.020;11.720;2023-11-22T12:08:17;5.40;;;4.90;;
7647;SDS011;3866;48.020;11.720;2023-11-22T12:10:45;5.87;;;5.03;;
7647;SDS011;3866;48.020;11.720;2023-11-22T12:13:15;8.83;;;6.10;;
7647;SDS011;3866;48.020;11.720;2023-11-22T12:15:43;7.10;;;5.90;;
7647;SDS011;3866;48.020;11.720;2023-11-22T12:18:10;41.87;;;22.90;;
7647;SDS011;3866;48.020;11.720;2023-11-22T12:20:38;31.63;;;16.23;;
7647;SDS011;3866;48.020;11.720;2023-11-22T12:23:06;5.30;;;4.33;;
7647;SDS011;3866;48.020;11.720;2023-11-22T12:25:33;3.67;;;3.37;;
7647;SDS011;3866;48.020;11.720;2023-11-22T12:28:01;3.90;;;3.50;;
7647;SDS011;3866;48.020;11.720;2023-11-22T12:30:29;3.20;;;3.00;;
7647;SDS011;3866;48.020;11.720;2023-11-22T12:33:00;3.80;;;3.50;;
7647;SDS011;3866;48.020;11.720;2023-11-22T12:35:29;4.43;;;4.03;;
7647;SDS011;3866;48.020;11.720;2023-11-22T12:37:59;4.60;;;4.20;;
7647;SDS011;3866;48.020;11.720;2023-11-22T12:40:27;4.30;;;3.90;;
7647;SDS011;3866;48.020;11.720;2023-11-22T12:42:57;4.53;;;4.10;;
7647;SDS011;3866;48.020;11.720;2023-11-22T12:45:24;6.93;;;6.30;;
7647;SDS011;3866;48.020;11.720;2023-11-22T12:47:53;6.03;;;5.43;;
7647;SDS011;3866;48.020;11.720;2023-11-22T12:50:30;6.03;;;5.43;;
7647;SDS011;3866;48.020;11.720;2023-11-22T12:53:10;6.13;;;4.83;;
7647;SDS011;3866;48.020;11.720;2023-11-22T12:55:41;5.37;;;4.80;;
7647;SDS011;3866;48.020;11.720;2023-11-22T12:58:09;5.30;;;4.80;;
7647;SDS011;3866;48.020;11.720;2023-11-22T13:00:37;6.53;;;5.63;;
7647;SDS011;3866;48.020;11.720;2023-11-22T13:03:05;6.47;;;5.03;;
7647;SDS011;3866;48.020;11.720;2023-11-22T13:05:33;5.60;;;5.10;;
7647;SDS011;3866;48.020;11.720;2023-11-22T13:08:00;5.90;;;5.30;;
7647;SDS011;3866;48.020;11.720;2023-11-22T13:10:30;5.40;;;4.90;;
7647;SDS011;3866;48.020;11.720;2023-11-22T13:12:57;5.40;;;4.90;;
7647;SDS011;3866;48.020;11.720;2023-11-22T13:15:26;5.37;;;4.57;;
7647;SDS011;3866;48.020;11.720;2023-11-22T13:17:53;5.70;;;5.13;;
7647;SDS011;3866;48.020;11.720;2023-11-22T13:20:25;5.00;;;4.53;;
7647;SDS011;3866;48.020;11.720;2023-11-22T13:22:52;5.93;;;5.13;;
7647;SDS011;3866;48.020;11.720;2023-11-22T13:25:20;12.17;;;6.13;;
7647;SDS011;3866;48.020;11.720;2023-11-22T13:27:50;6.00;;;4.77;;
7647;SDS011;3866;48.020;11.720;2023-11-22T13:30:18;5.47;;;4.97;;
7647;SDS011;3866;48.020;11.720;2023-11-22T13:32:48;5.43;;;4.77;;
7647;SDS011;3866;48.020;11.720;2023-11-22T13:35:15;6.90;;;5.73;;
7647;SDS011;3866;48.020;11.720;2023-11-22T13:37:42;5.10;;;4.63;;
7647;SDS011;3866;48.020;11.720;2023-11-22T13:40:10;4.97;;;4.47;;
7647;SDS011;3866;48.020;11.720;2023-11-22T13:42:42;4.80;;;4.30;;
7647;SDS011;3866;48.020;11.720;2023-11-22T13:45:12;5.93;;;5.00;;
7647;SDS011;3866;48.020;11.720;2023-11-22T13:47:42;5.40;;;4.90;;
7647;SDS011;3866;48.020;11.720;2023-11-22T13:50:12;5.03;;;4.43;;
7647;SDS011;3866;48.020;11.720;2023-11-22T13:52:40;6.67;;;4.77;;
7647;SDS011;3866;48.020;11.720;2023-11-22T13:55:08;5.70;;;5.10;;
7647;SDS011;3866;48.020;11.720;2023-11-22T13:57:36;5.33;;;4.83;;
7647;SDS011;3866;48.020;11.720;2023-11-22T14:00:03;7.17;;;5.10;;
7647;SDS011;3866;48.020;11.720;2023-11-22T14:02:35;10.63;;;5.37;;
7647;SDS011;3866;48.020;11.720;2023-11-22T14:05:02;6.20;;;5.13;;
7647;SDS011;3866;48.020;11.720;2023-11-22T14:07:33;6.00;;;5.47;;
7647;SDS011;3866;48.020;11.720;2023-11-22T14:10:00;5.60;;;5.10;;
7647;SDS011;3866;48.020;11.720;2023-11-22T14:12:28;6.10;;;4.33;;
7647;SDS011;3866;48.020;11.720;2023-11-22T14:14:55;5.17;;;4.67;;
7647;SDS011;3866;48.020;11.720;2023-11-22T14:17:22;4.60;;;4.20;;
7647;SDS011;3866;48.020;11.720;2023-11-22T14:19:50;5.23;;;4.73;;
7647;SDS011;3866;48.020;11.720;2023-11-22T14:22:17;4.70;;;4.30;;
7647;SDS011;3866;48.020;11.720;2023-11-22T14:24:45;6.00;;;4.80;;
7647;SDS011;3866;48.020;11.720;2023-11-22T14:27:13;5.67;;;5.17;;
7647;SDS011;3866;48.020;11.720;2023-11-22T14:29:41;6.40;;;5.03;;
7647;SDS011;3866;48.020;11.720;2023-11-22T14:32:08;5.13;;;4.63;;
7647;SDS011;3866;48.020;11.720;2023-11-22T14:34:35;7.63;;;4.50;;
7647;SDS011;3866;48.020;11.720;2023-11-22T14:37:05;4.90;;;4.40;;
7647;SDS011;3866;48.020;11.720;2023-11-22T14:39:32;4.60;;;4.20;;
7647;SDS011;3866;48.020;11.720;2023-11-22T14:41:59;4.13;;;3.73;;
7647;SDS011;3866;48.020;11.720;2023-11-22T14:44:27;4.00;;;3.70;;
7647;SDS011;3866;48.020;11.720;2023-11-22T14:46:56;4.13;;;3.73;;
7647;SDS011;3866;48.020;11.720;2023-11-22T14:49:24;4.77;;;4.03;;
7647;SDS011;3866;48.020;11.720;2023-11-22T14:51:53;8.63;;;6.03;;
7647;SDS011;3866;48.020;11.720;2023-11-22T14:54:22;5.23;;;4.50;;
7647;SDS011;3866;48.020;11.720;2023-11-22T14:56:49;5.27;;;4.77;;
7647;SDS011;3866;48.020;11.720;2023-11-22T14:59:16;5.87;;;4.20;;
7647;SDS011;3866;48.020;11.720;2023-11-22T15:01:43;5.60;;;3.90;;
7647;SDS011;3866;48.020;11.720;2023-11-22T15:04:11;4.57;;;4.17;;
7647;SDS011;3866;48.020;11.720;2023-11-22T15:06:38;5.60;;;5.00;;